sensor_id;sensor_type;location;lat;lon;timestamp;P1;durP1;ratioP1;P2;durP2;ratioP2
2099;SDS011;1055;48.854;9.302;2023-05-07T00:00:02;7.67;;;5.07;;
2099;SDS011;1055;48.854;9.302;2023-05-07T00:02:32;9.10;;;5.17;;
2099;SDS011;1055;48.854;9.302;2023-05-07T00:05:08;7.20;;;4.43;;
2099;SDS011;1055;48.854;9.302;2023-05-07T00:07:33;7.90;;;4.53;;
2099;SDS011;1055;48.854;9.302;2023-05-07T00:09:59;9.50;;;5.30;;
2099;SDS011;1055;48.854;9.302;2023-05-07T00:12:25;8.00;;;5.57;;
2099;SDS011;1055;48.854;9.302;2023-05-07T00:14:56;8.07;;;5.30;;
2099;SDS011;1055;48.854;9.302;2023-05-07T00:17:22;11.60;;;5.63;;
2099;SDS011;1055;48.854;9.302;2023-05-07T00:19:48;10.17;;;6.37;;
2099;SDS011;1055;48.854;9.302;2023-05-07T00:22:16;7.97;;;5.50;;
2099;SDS011;1055;48.854;9.302;2023-05-07T00:24:42;10.30;;;6.00;;
2099;SDS011;1055;48.854;9.302;2023-05-07T00:27:08;8.17;;;5.40;;
2099;SDS011;1055;48.854;9.302;2023-05-07T00:29:34;11.33;;;6.00;;
2099;SDS011;1055;48.854;9.302;2023-05-07T00:32:02;8.20;;;5.40;;
2099;SDS011;1055;48.854;9.302;2023-05-07T00:34:28;7.57;;;5.10;;
2099;SDS011;1055;48.854;9.302;2023-05-07T00:36:54;9.53;;;5.20;;
2099;SDS011;1055;48.854;9.302;2023-05-07T00:39:19;8.17;;;4.87;;
2099;SDS011;1055;48.854;9.302;2023-05-07T00:41:45;9.13;;;5.53;;
2099;SDS011;1055;48.854;9.302;2023-05-07T00:44:13;8.30;;;4.87;;
2099;SDS011;1055;48.854;9.302;2023-05-07T00:46:41;7.90;;;5.37;;
2099;SDS011;1055;48.854;9.302;2023-05-07T00:49:07;9.37;;;6.33;;
2099;SDS011;1055;48.854;9.302;2023-05-07T00:51:33;8.53;;;5.73;;
2099;SDS011;1055;48.854;9.302;2023-05-07T00:54:00;14.50;;;5.67;;
2099;SDS011;1055;48.854;9.302;2023-05-07T00:56:28;8.97;;;5.63;;
2099;SDS011;1055;48.854;9.302;2023-05-07T00:58:57;8.30;;;5.50;;
2099;SDS011;1055;48.854;9.302;2023-05-07T01:01:23;7.53;;;4.70;;
2099;SDS011;1055;48.854;9.302;2023-05-07T01:03:48;9.83;;;6.33;;
2099;SDS011;1055;48.854;9.302;2023-05-07T01:06:17;8.40;;;5.40;;
2099;SDS011;1055;48.854;9.302;2023-05-07T01:08:44;8.97;;;5.50;;
2099;SDS011;1055;48.854;9.302;2023-05-07T01:11:11;7.77;;;5.20;;
2099;SDS011;1055;48.854;9.302;2023-05-07T01:13:37;7.20;;;4.63;;
2099;SDS011;1055;48.854;9.302;2023-05-07T01:16:04;7.60;;;4.73;;
2099;SDS011;1055;48.854;9.302;2023-05-07T01:18:32;8.40;;;4.87;;
2099;SDS011;1055;48.854;9.302;2023-05-07T01:20:58;11.70;;;5.60;;
2099;SDS011;1055;48.854;9.302;2023-05-07T01:23:25;7.00;;;4.63;;
2099;SDS011;1055;48.854;9.302;2023-05-07T01:25:52;9.23;;;5.47;;
2099;SDS011;1055;48.854;9.302;2023-05-07T01:28:19;9.33;;;4.60;;
2099;SDS011;1055;48.854;9.302;2023-05-07T01:30:46;8.60;;;4.70;;
2099;SDS011;1055;48.854;9.302;2023-05-07T01:33:20;8.50;;;5.40;;
2099;SDS011;1055;48.854;9.302;2023-05-07T01:35:47;8.70;;;5.20;;
2099;SDS011;1055;48.854;9.302;2023-05-07T01:38:16;8.50;;;5.43;;
2099;SDS011;1055;48.854;9.302;2023-05-07T01:40:43;8.53;;;5.13;;
2099;SDS011;1055;48.854;9.302;2023-05-07T01:43:12;12.43;;;5.50;;
2099;SDS011;1055;48.854;9.302;2023-05-07T01:45:41;9.70;;;5.67;;
2099;SDS011;1055;48.854;9.302;2023-05-07T01:48:10;8.60;;;4.70;;
2099;SDS011;1055;48.854;9.302;2023-05-07T01:50:37;8.67;;;5.27;;
2099;SDS011;1055;48.854;9.302;2023-05-07T01:53:06;7.77;;;4.77;;
2099;SDS011;1055;48.854;9.302;2023-05-07T01:55:35;9.53;;;5.00;;
2099;SDS011;1055;48.854;9.302;2023-05-07T01:58:02;8.67;;;4.97;;
2099;SDS011;1055;48.854;9.302;2023-05-07T02:00:28;8.03;;;4.43;;
2099;SDS011;1055;48.854;9.302;2023-05-07T02:02:54;8.80;;;4.80;;
2099;SDS011;1055;48.854;9.302;2023-05-07T02:05:19;7.97;;;5.27;;
2099;SDS011;1055;48.854;9.302;2023-05-07T02:07:45;8.70;;;4.90;;
2099;SDS011;1055;48.854;9.302;2023-05-07T02:10:14;7.87;;;4.93;;
2099;SDS011;1055;48.854;9.302;2023-05-07T02:12:42;7.23;;;4.80;;
2099;SDS011;1055;48.854;9.302;2023-05-07T02:15:08;9.27;;;5.90;;
2099;SDS011;1055;48.854;9.302;2023-05-07T02:17:34;8.90;;;5.60;;
2099;SDS011;1055;48.854;9.302;2023-05-07T02:20:00;9.47;;;5.30;;
2099;SDS011;1055;48.854;9.302;2023-05-07T02:22:26;8.00;;;5.27;;
2099;SDS011;1055;48.854;9.302;2023-05-07T02:24:52;9.17;;;5.30;;
2099;SDS011;1055;48.854;9.302;2023-05-07T02:27:17;10.23;;;5.13;;
2099;SDS011;1055;48.854;9.302;2023-05-07T02:29:45;9.67;;;5.37;;
2099;SDS011;1055;48.854;9.302;2023-05-07T02:32:11;9.03;;;5.33;;
2099;SDS011;1055;48.854;9.302;2023-05-07T02:34:37;8.23;;;5.23;;
2099;SDS011;1055;48.854;9.302;2023-05-07T02:37:03;8.37;;;5.43;;
2099;SDS011;1055;48.854;9.302;2023-05-07T02:39:31;8.60;;;5.13;;
2099;SDS011;1055;48.854;9.302;2023-05-07T02:41:56;8.47;;;4.93;;
2099;SDS011;1055;48.854;9.302;2023-05-07T02:44:22;9.37;;;6.20;;
2099;SDS011;1055;48.854;9.302;2023-05-07T02:46:50;8.07;;;4.73;;
2099;SDS011;1055;48.854;9.302;2023-05-07T02:49:19;8.77;;;5.60;;
2099;SDS011;1055;48.854;9.302;2023-05-07T02:51:47;8.07;;;4.70;;
2099;SDS011;1055;48.854;9.302;2023-05-07T02:54:15;9.33;;;6.00;;
2099;SDS011;1055;48.854;9.302;2023-05-07T02:56:41;8.70;;;5.30;;
2099;SDS011;1055;48.854;9.302;2023-05-07T02:59:07;8.20;;;5.57;;
2099;SDS011;1055;48.854;9.302;2023-05-07T03:01:32;9.20;;;4.97;;
2099;SDS011;1055;48.854;9.302;2023-05-07T03:03:58;9.00;;;4.90;;
2099;SDS011;1055;48.854;9.302;2023-05-07T03:06:27;7.70;;;5.03;;
2099;SDS011;1055;48.854;9.302;2023-05-07T03:08:52;9.53;;;5.10;;
2099;SDS011;1055;48.854;9.302;2023-05-07T03:11:26;9.90;;;4.77;;
2099;SDS011;1055;48.854;9.302;2023-05-07T03:13:54;8.90;;;5.57;;
2099;SDS011;1055;48.854;9.302;2023-05-07T03:16:20;8.67;;;5.10;;
2099;SDS011;1055;48.854;9.302;2023-05-07T03:18:45;8.63;;;5.33;;
2099;SDS011;1055;48.854;9.302;2023-05-07T03:21:11;8.80;;;5.37;;
2099;SDS011;1055;48.854;9.302;2023-05-07T03:23:40;8.53;;;5.13;;
2099;SDS011;1055;48.854;9.302;2023-05-07T03:26:08;8.90;;;5.53;;
2099;SDS011;1055;48.854;9.302;2023-05-07T03:28:34;11.00;;;5.20;;
2099;SDS011;1055;48.854;9.302;2023-05-07T03:31:03;9.07;;;5.43;;
2099;SDS011;1055;48.854;9.302;2023-05-07T03:33:29;9.63;;;5.67;;
2099;SDS011;1055;48.854;9.302;2023-05-07T03:35:55;11.90;;;5.73;;
2099;SDS011;1055;48.854;9.302;2023-05-07T03:38:20;9.30;;;5.50;;
2099;SDS011;1055;48.854;9.302;2023-05-07T03:40:46;7.77;;;5.00;;
2099;SDS011;1055;48.854;9.302;2023-05-07T03:43:12;9.40;;;5.53;;
2099;SDS011;1055;48.854;9.302;2023-05-07T03:45:40;7.80;;;5.33;;
2099;SDS011;1055;48.854;9.302;2023-05-07T03:48:05;10.30;;;5.63;;
2099;SDS011;1055;48.854;9.302;2023-05-07T03:50:31;7.50;;;5.10;;
2099;SDS011;1055;48.854;9.302;2023-05-07T03:52:57;6.70;;;4.80;;
2099;SDS011;1055;48.854;9.302;2023-05-07T03:55:25;8.10;;;5.30;;
2099;SDS011;1055;48.854;9.302;2023-05-07T03:57:51;10.33;;;5.53;;
2099;SDS011;1055;48.854;9.302;2023-05-07T04:00:20;8.10;;;5.07;;
2099;SDS011;1055;48.854;9.302;2023-05-07T04:02:46;8.60;;;5.10;;
2099;SDS011;1055;48.854;9.302;2023-05-07T04:05:12;8.50;;;4.80;;
2099;SDS011;1055;48.854;9.302;2023-05-07T04:07:39;7.63;;;4.80;;
2099;SDS011;1055;48.854;9.302;2023-05-07T04:10:11;7.90;;;5.17;;
2099;SDS011;1055;48.854;9.302;2023-05-07T04:12:38;8.10;;;4.73;;
2099;SDS011;1055;48.854;9.302;2023-05-07T04:15:04;9.10;;;5.10;;
2099;SDS011;1055;48.854;9.302;2023-05-07T04:17:33;8.60;;;5.53;;
2099;SDS011;1055;48.854;9.302;2023-05-07T04:19:58;9.40;;;5.13;;
2099;SDS011;1055;48.854;9.302;2023-05-07T04:22:24;9.00;;;5.97;;
2099;SDS011;1055;48.854;9.302;2023-05-07T04:24:52;9.23;;;5.10;;
2099;SDS011;1055;48.854;9.302;2023-05-07T04:27:18;8.33;;;5.10;;
2099;SDS011;1055;48.854;9.302;2023-05-07T04:29:44;7.63;;;5.23;;
2099;SDS011;1055;48.854;9.302;2023-05-07T04:32:21;7.50;;;4.80;;
2099;SDS011;1055;48.854;9.302;2023-05-07T04:34:49;7.93;;;4.50;;
2099;SDS011;1055;48.854;9.302;2023-05-07T04:37:18;11.07;;;4.80;;
2099;SDS011;1055;48.854;9.302;2023-05-07T04:39:46;8.90;;;4.83;;
2099;SDS011;1055;48.854;9.302;2023-05-07T04:42:15;7.60;;;5.07;;
2099;SDS011;1055;48.854;9.302;2023-05-07T04:44:44;8.77;;;5.20;;
2099;SDS011;1055;48.854;9.302;2023-05-07T04:47:12;10.10;;;5.17;;
2099;SDS011;1055;48.854;9.302;2023-05-07T04:49:40;8.03;;;5.27;;
2099;SDS011;1055;48.854;9.302;2023-05-07T04:52:06;7.63;;;5.10;;
2099;SDS011;1055;48.854;9.302;2023-05-07T04:54:32;10.40;;;5.53;;
2099;SDS011;1055;48.854;9.302;2023-05-07T04:56:57;9.27;;;5.53;;
2099;SDS011;1055;48.854;9.302;2023-05-07T04:59:23;8.10;;;5.13;;
2099;SDS011;1055;48.854;9.302;2023-05-07T05:01:51;10.17;;;5.13;;
2099;SDS011;1055;48.854;9.302;2023-05-07T05:04:20;8.93;;;5.90;;
2099;SDS011;1055;48.854;9.302;2023-05-07T05:06:45;7.60;;;4.97;;
2099;SDS011;1055;48.854;9.302;2023-05-07T05:09:11;7.10;;;4.93;;
2099;SDS011;1055;48.854;9.302;2023-05-07T05:11:37;9.00;;;4.97;;
2099;SDS011;1055;48.854;9.302;2023-05-07T05:14:06;7.80;;;5.30;;
2099;SDS011;1055;48.854;9.302;2023-05-07T05:16:32;8.37;;;5.60;;
2099;SDS011;1055;48.854;9.302;2023-05-07T05:18:57;7.50;;;4.73;;
2099;SDS011;1055;48.854;9.302;2023-05-07T05:21:24;7.50;;;4.80;;
2099;SDS011;1055;48.854;9.302;2023-05-07T05:23:50;9.20;;;4.63;;
2099;SDS011;1055;48.854;9.302;2023-05-07T05:26:16;10.17;;;4.97;;
2099;SDS011;1055;48.854;9.302;2023-05-07T05:28:41;7.73;;;4.90;;
2099;SDS011;1055;48.854;9.302;2023-05-07T05:31:07;9.17;;;4.83;;
2099;SDS011;1055;48.854;9.302;2023-05-07T05:33:35;7.70;;;4.73;;
2099;SDS011;1055;48.854;9.302;2023-05-07T05:36:01;8.47;;;4.70;;
2099;SDS011;1055;48.854;9.302;2023-05-07T05:38:27;7.60;;;4.60;;
2099;SDS011;1055;48.854;9.302;2023-05-07T05:40:55;7.67;;;4.57;;
2099;SDS011;1055;48.854;9.302;2023-05-07T05:43:20;8.53;;;5.13;;
2099;SDS011;1055;48.854;9.302;2023-05-07T05:45:46;8.50;;;5.40;;
2099;SDS011;1055;48.854;9.302;2023-05-07T05:48:14;8.70;;;5.00;;
2099;SDS011;1055;48.854;9.302;2023-05-07T05:50:43;8.37;;;4.67;;
2099;SDS011;1055;48.854;9.302;2023-05-07T05:53:09;7.50;;;4.53;;
2099;SDS011;1055;48.854;9.302;2023-05-07T05:55:37;8.30;;;4.70;;
2099;SDS011;1055;48.854;9.302;2023-05-07T05:58:02;8.90;;;4.50;;
2099;SDS011;1055;48.854;9.302;2023-05-07T06:00:31;8.53;;;4.10;;
2099;SDS011;1055;48.854;9.302;2023-05-07T06:02:57;8.63;;;4.60;;
2099;SDS011;1055;48.854;9.302;2023-05-07T06:05:23;7.90;;;4.97;;
2099;SDS011;1055;48.854;9.302;2023-05-07T06:07:49;8.37;;;4.77;;
2099;SDS011;1055;48.854;9.302;2023-05-07T06:10:14;8.47;;;5.03;;
2099;SDS011;1055;48.854;9.302;2023-05-07T06:12:49;9.73;;;4.40;;
2099;SDS011;1055;48.854;9.302;2023-05-07T06:15:17;8.37;;;4.33;;
2099;SDS011;1055;48.854;9.302;2023-05-07T06:17:50;11.27;;;9.27;;
2099;SDS011;1055;48.854;9.302;2023-05-07T06:20:22;8.47;;;6.00;;
2099;SDS011;1055;48.854;9.302;2023-05-07T06:22:51;8.63;;;4.87;;
2099;SDS011;1055;48.854;9.302;2023-05-07T06:25:18;9.23;;;4.40;;
2099;SDS011;1055;48.854;9.302;2023-05-07T06:27:49;8.30;;;5.93;;
2099;SDS011;1055;48.854;9.302;2023-05-07T06:30:18;11.70;;;4.93;;
2099;SDS011;1055;48.854;9.302;2023-05-07T06:32:47;8.83;;;5.03;;
2099;SDS011;1055;48.854;9.302;2023-05-07T06:35:15;7.37;;;4.67;;
2099;SDS011;1055;48.854;9.302;2023-05-07T06:37:52;8.23;;;5.00;;
2099;SDS011;1055;48.854;9.302;2023-05-07T06:40:18;6.97;;;4.40;;
2099;SDS011;1055;48.854;9.302;2023-05-07T06:42:49;9.10;;;5.17;;
2099;SDS011;1055;48.854;9.302;2023-05-07T06:45:35;10.07;;;7.17;;
2099;SDS011;1055;48.854;9.302;2023-05-07T06:48:01;8.20;;;5.20;;
2099;SDS011;1055;48.854;9.302;2023-05-07T06:50:29;8.67;;;5.93;;
2099;SDS011;1055;48.854;9.302;2023-05-07T06:52:55;7.23;;;4.80;;
2099;SDS011;1055;48.854;9.302;2023-05-07T06:55:21;7.70;;;4.97;;
2099;SDS011;1055;48.854;9.302;2023-05-07T06:57:50;7.67;;;4.07;;
2099;SDS011;1055;48.854;9.302;2023-05-07T07:00:16;8.53;;;4.77;;
2099;SDS011;1055;48.854;9.302;2023-05-07T07:02:55;7.90;;;4.23;;
2099;SDS011;1055;48.854;9.302;2023-05-07T07:05:24;7.87;;;4.40;;
2099;SDS011;1055;48.854;9.302;2023-05-07T07:07:52;8.27;;;4.47;;
2099;SDS011;1055;48.854;9.302;2023-05-07T07:10:19;7.10;;;4.10;;
2099;SDS011;1055;48.854;9.302;2023-05-07T07:12:45;6.37;;;4.00;;
2099;SDS011;1055;48.854;9.302;2023-05-07T07:15:14;6.97;;;4.50;;
2099;SDS011;1055;48.854;9.302;2023-05-07T07:17:42;7.17;;;4.57;;
2099;SDS011;1055;48.854;9.302;2023-05-07T07:20:08;7.80;;;4.50;;
2099;SDS011;1055;48.854;9.302;2023-05-07T07:22:35;8.90;;;4.23;;
2099;SDS011;1055;48.854;9.302;2023-05-07T07:25:00;6.83;;;4.17;;
2099;SDS011;1055;48.854;9.302;2023-05-07T07:27:26;7.17;;;4.67;;
2099;SDS011;1055;48.854;9.302;2023-05-07T07:29:52;7.27;;;4.40;;
2099;SDS011;1055;48.854;9.302;2023-05-07T07:32:17;6.97;;;4.60;;
2099;SDS011;1055;48.854;9.302;2023-05-07T07:34:43;8.20;;;3.80;;
2099;SDS011;1055;48.854;9.302;2023-05-07T07:37:08;6.77;;;4.00;;
2099;SDS011;1055;48.854;9.302;2023-05-07T07:39:34;6.53;;;3.33;;
2099;SDS011;1055;48.854;9.302;2023-05-07T07:42:02;6.90;;;3.87;;
2099;SDS011;1055;48.854;9.302;2023-05-07T07:44:28;8.00;;;3.80;;
2099;SDS011;1055;48.854;9.302;2023-05-07T07:46:54;8.47;;;3.60;;
2099;SDS011;1055;48.854;9.302;2023-05-07T07:49:19;6.60;;;3.47;;
2099;SDS011;1055;48.854;9.302;2023-05-07T07:51:45;8.70;;;3.60;;
2099;SDS011;1055;48.854;9.302;2023-05-07T07:54:11;6.60;;;3.70;;
2099;SDS011;1055;48.854;9.302;2023-05-07T07:56:36;6.70;;;3.50;;
2099;SDS011;1055;48.854;9.302;2023-05-07T07:59:02;6.93;;;3.57;;
2099;SDS011;1055;48.854;9.302;2023-05-07T08:01:31;7.10;;;3.97;;
2099;SDS011;1055;48.854;9.302;2023-05-07T08:03:57;7.93;;;3.90;;
2099;SDS011;1055;48.854;9.302;2023-05-07T08:06:23;10.40;;;3.67;;
2099;SDS011;1055;48.854;9.302;2023-05-07T08:08:50;7.07;;;3.80;;
2099;SDS011;1055;48.854;9.302;2023-05-07T08:11:16;7.13;;;4.30;;
2099;SDS011;1055;48.854;9.302;2023-05-07T08:13:42;8.50;;;3.63;;
2099;SDS011;1055;48.854;9.302;2023-05-07T08:16:10;6.63;;;4.03;;
2099;SDS011;1055;48.854;9.302;2023-05-07T08:18:35;6.50;;;4.03;;
2099;SDS011;1055;48.854;9.302;2023-05-07T08:21:01;7.47;;;3.87;;
2099;SDS011;1055;48.854;9.302;2023-05-07T08:23:27;7.83;;;4.10;;
2099;SDS011;1055;48.854;9.302;2023-05-07T08:25:53;7.33;;;3.80;;
2099;SDS011;1055;48.854;9.302;2023-05-07T08:28:18;7.07;;;3.93;;
2099;SDS011;1055;48.854;9.302;2023-05-07T08:30:45;7.77;;;3.83;;
2099;SDS011;1055;48.854;9.302;2023-05-07T08:33:11;8.90;;;4.70;;
2099;SDS011;1055;48.854;9.302;2023-05-07T08:35:37;8.10;;;4.07;;
2099;SDS011;1055;48.854;9.302;2023-05-07T08:38:03;7.23;;;4.30;;
2099;SDS011;1055;48.854;9.302;2023-05-07T08:40:28;5.83;;;3.60;;
2099;SDS011;1055;48.854;9.302;2023-05-07T08:42:55;7.47;;;3.93;;
2099;SDS011;1055;48.854;9.302;2023-05-07T08:45:21;6.90;;;4.10;;
2099;SDS011;1055;48.854;9.302;2023-05-07T08:47:50;7.20;;;3.83;;
2099;SDS011;1055;48.854;9.302;2023-05-07T08:50:20;8.30;;;4.23;;
2099;SDS011;1055;48.854;9.302;2023-05-07T08:52:46;7.63;;;3.80;;
2099;SDS011;1055;48.854;9.302;2023-05-07T08:55:12;7.47;;;4.03;;
2099;SDS011;1055;48.854;9.302;2023-05-07T08:57:38;7.83;;;3.97;;
2099;SDS011;1055;48.854;9.302;2023-05-07T09:00:04;6.60;;;3.90;;
2099;SDS011;1055;48.854;9.302;2023-05-07T09:02:32;8.63;;;4.20;;
2099;SDS011;1055;48.854;9.302;2023-05-07T09:04:59;7.33;;;4.17;;
2099;SDS011;1055;48.854;9.302;2023-05-07T09:07:25;10.40;;;4.80;;
2099;SDS011;1055;48.854;9.302;2023-05-07T09:09:51;6.90;;;4.30;;
2099;SDS011;1055;48.854;9.302;2023-05-07T09:12:18;7.80;;;4.30;;
2099;SDS011;1055;48.854;9.302;2023-05-07T09:14:44;7.80;;;4.73;;
2099;SDS011;1055;48.854;9.302;2023-05-07T09:17:11;6.40;;;4.17;;
2099;SDS011;1055;48.854;9.302;2023-05-07T09:19:36;7.27;;;4.70;;
2099;SDS011;1055;48.854;9.302;2023-05-07T09:22:02;8.20;;;4.70;;
2099;SDS011;1055;48.854;9.302;2023-05-07T09:24:29;7.63;;;4.70;;
2099;SDS011;1055;48.854;9.302;2023-05-07T09:26:59;7.50;;;4.80;;
2099;SDS011;1055;48.854;9.302;2023-05-07T09:29:26;7.10;;;4.00;;
2099;SDS011;1055;48.854;9.302;2023-05-07T09:31:53;8.13;;;5.20;;
2099;SDS011;1055;48.854;9.302;2023-05-07T09:34:19;7.40;;;4.90;;
2099;SDS011;1055;48.854;9.302;2023-05-07T09:36:45;7.37;;;4.80;;
2099;SDS011;1055;48.854;9.302;2023-05-07T09:39:11;7.37;;;5.00;;
2099;SDS011;1055;48.854;9.302;2023-05-07T09:41:44;7.20;;;4.50;;
2099;SDS011;1055;48.854;9.302;2023-05-07T09:44:10;7.10;;;4.60;;
2099;SDS011;1055;48.854;9.302;2023-05-07T09:46:36;9.27;;;4.60;;
2099;SDS011;1055;48.854;9.302;2023-05-07T09:49:03;6.73;;;4.40;;
2099;SDS011;1055;48.854;9.302;2023-05-07T09:51:49;7.53;;;4.30;;
2099;SDS011;1055;48.854;9.302;2023-05-07T09:54:16;8.53;;;4.67;;
2099;SDS011;1055;48.854;9.302;2023-05-07T09:56:45;6.90;;;4.33;;
2099;SDS011;1055;48.854;9.302;2023-05-07T09:59:13;6.47;;;4.30;;
2099;SDS011;1055;48.854;9.302;2023-05-07T10:01:41;7.80;;;4.83;;
2099;SDS011;1055;48.854;9.302;2023-05-07T10:04:07;6.77;;;4.37;;
2099;SDS011;1055;48.854;9.302;2023-05-07T10:06:34;8.40;;;4.70;;
2099;SDS011;1055;48.854;9.302;2023-05-07T10:09:00;6.80;;;4.40;;
2099;SDS011;1055;48.854;9.302;2023-05-07T10:11:27;9.27;;;4.73;;
2099;SDS011;1055;48.854;9.302;2023-05-07T10:13:53;8.03;;;4.70;;
2099;SDS011;1055;48.854;9.302;2023-05-07T10:16:20;6.30;;;4.27;;
2099;SDS011;1055;48.854;9.302;2023-05-07T10:18:46;8.23;;;4.57;;
2099;SDS011;1055;48.854;9.302;2023-05-07T10:21:17;7.90;;;5.20;;
2099;SDS011;1055;48.854;9.302;2023-05-07T10:23:44;7.00;;;4.47;;
2099;SDS011;1055;48.854;9.302;2023-05-07T10:26:12;8.57;;;4.90;;
2099;SDS011;1055;48.854;9.302;2023-05-07T10:28:42;7.23;;;4.33;;
2099;SDS011;1055;48.854;9.302;2023-05-07T10:33:43;6.90;;;4.17;;
2099;SDS011;1055;48.854;9.302;2023-05-07T10:36:10;6.67;;;4.63;;
2099;SDS011;1055;48.854;9.302;2023-05-07T10:38:36;7.43;;;4.30;;
2099;SDS011;1055;48.854;9.302;2023-05-07T10:41:03;6.60;;;4.13;;
2099;SDS011;1055;48.854;9.302;2023-05-07T10:43:43;7.53;;;3.80;;
2099;SDS011;1055;48.854;9.302;2023-05-07T10:51:31;8.60;;;3.83;;
2099;SDS011;1055;48.854;9.302;2023-05-07T10:56:39;6.13;;;3.87;;
2099;SDS011;1055;48.854;9.302;2023-05-07T11:02:03;7.07;;;3.97;;
2099;SDS011;1055;48.854;9.302;2023-05-07T11:04:31;6.53;;;3.60;;
2099;SDS011;1055;48.854;9.302;2023-05-07T11:12:15;6.40;;;3.67;;
2099;SDS011;1055;48.854;9.302;2023-05-07T11:17:07;5.63;;;3.47;;
2099;SDS011;1055;48.854;9.302;2023-05-07T11:19:50;5.33;;;3.07;;
2099;SDS011;1055;48.854;9.302;2023-05-07T11:25:01;6.30;;;3.60;;
2099;SDS011;1055;48.854;9.302;2023-05-07T11:27:33;6.47;;;3.30;;
2099;SDS011;1055;48.854;9.302;2023-05-07T11:29:59;8.40;;;3.83;;
2099;SDS011;1055;48.854;9.302;2023-05-07T11:32:29;6.63;;;3.77;;
2099;SDS011;1055;48.854;9.302;2023-05-07T11:34:56;6.23;;;3.80;;
2099;SDS011;1055;48.854;9.302;2023-05-07T11:37:23;6.40;;;3.47;;
2099;SDS011;1055;48.854;9.302;2023-05-07T11:39:50;5.87;;;3.20;;
2099;SDS011;1055;48.854;9.302;2023-05-07T11:44:51;5.40;;;3.20;;
2099;SDS011;1055;48.854;9.302;2023-05-07T11:47:18;5.97;;;3.17;;
2099;SDS011;1055;48.854;9.302;2023-05-07T11:49:48;6.10;;;3.40;;
2099;SDS011;1055;48.854;9.302;2023-05-07T11:52:16;6.57;;;3.27;;
2099;SDS011;1055;48.854;9.302;2023-05-07T11:54:48;6.67;;;3.60;;
2099;SDS011;1055;48.854;9.302;2023-05-07T11:57:16;7.47;;;3.43;;
2099;SDS011;1055;48.854;9.302;2023-05-07T11:59:42;6.57;;;2.80;;
2099;SDS011;1055;48.854;9.302;2023-05-07T12:02:09;5.60;;;3.27;;
2099;SDS011;1055;48.854;9.302;2023-05-07T12:04:35;5.80;;;2.90;;
2099;SDS011;1055;48.854;9.302;2023-05-07T12:07:01;6.87;;;3.10;;
2099;SDS011;1055;48.854;9.302;2023-05-07T12:09:27;6.30;;;3.50;;
2099;SDS011;1055;48.854;9.302;2023-05-07T12:11:54;6.90;;;3.33;;
2099;SDS011;1055;48.854;9.302;2023-05-07T12:14:21;6.70;;;3.10;;
2099;SDS011;1055;48.854;9.302;2023-05-07T12:16:47;6.00;;;3.30;;
2099;SDS011;1055;48.854;9.302;2023-05-07T12:19:13;5.50;;;3.10;;
2099;SDS011;1055;48.854;9.302;2023-05-07T12:21:40;5.73;;;3.20;;
2099;SDS011;1055;48.854;9.302;2023-05-07T12:24:06;6.17;;;3.37;;
2099;SDS011;1055;48.854;9.302;2023-05-07T12:26:37;6.50;;;3.30;;
2099;SDS011;1055;48.854;9.302;2023-05-07T12:29:03;5.63;;;3.57;;
2099;SDS011;1055;48.854;9.302;2023-05-07T12:31:29;6.10;;;3.17;;
2099;SDS011;1055;48.854;9.302;2023-05-07T12:33:55;6.17;;;2.90;;
2099;SDS011;1055;48.854;9.302;2023-05-07T12:36:21;7.00;;;3.20;;
2099;SDS011;1055;48.854;9.302;2023-05-07T12:38:49;5.80;;;3.10;;
2099;SDS011;1055;48.854;9.302;2023-05-07T12:41:15;6.73;;;3.30;;
2099;SDS011;1055;48.854;9.302;2023-05-07T12:43:42;7.20;;;3.40;;
2099;SDS011;1055;48.854;9.302;2023-05-07T12:46:09;6.90;;;3.70;;
2099;SDS011;1055;48.854;9.302;2023-05-07T12:48:38;5.57;;;3.20;;
2099;SDS011;1055;48.854;9.302;2023-05-07T12:51:08;6.27;;;3.10;;
2099;SDS011;1055;48.854;9.302;2023-05-07T12:53:39;5.73;;;2.90;;
2099;SDS011;1055;48.854;9.302;2023-05-07T12:56:07;7.70;;;3.07;;
2099;SDS011;1055;48.854;9.302;2023-05-07T12:58:33;6.70;;;3.20;;
2099;SDS011;1055;48.854;9.302;2023-05-07T13:01:05;7.70;;;4.00;;
2099;SDS011;1055;48.854;9.302;2023-05-07T13:03:36;6.37;;;3.10;;
2099;SDS011;1055;48.854;9.302;2023-05-07T13:06:03;7.33;;;2.60;;
2099;SDS011;1055;48.854;9.302;2023-05-07T13:08:35;5.90;;;2.73;;
2099;SDS011;1055;48.854;9.302;2023-05-07T13:11:06;7.30;;;3.20;;
2099;SDS011;1055;48.854;9.302;2023-05-07T13:13:33;7.33;;;3.17;;
2099;SDS011;1055;48.854;9.302;2023-05-07T13:16:00;6.03;;;3.17;;
2099;SDS011;1055;48.854;9.302;2023-05-07T13:18:28;8.63;;;4.10;;
2099;SDS011;1055;48.854;9.302;2023-05-07T13:20:55;7.40;;;4.77;;
2099;SDS011;1055;48.854;9.302;2023-05-07T13:23:21;6.83;;;3.90;;
2099;SDS011;1055;48.854;9.302;2023-05-07T13:25:47;7.60;;;4.07;;
2099;SDS011;1055;48.854;9.302;2023-05-07T13:28:13;6.20;;;3.20;;
2099;SDS011;1055;48.854;9.302;2023-05-07T13:30:39;6.20;;;3.10;;
2099;SDS011;1055;48.854;9.302;2023-05-07T13:33:06;6.60;;;2.90;;
2099;SDS011;1055;48.854;9.302;2023-05-07T13:35:32;6.47;;;3.00;;
2099;SDS011;1055;48.854;9.302;2023-05-07T13:37:58;5.67;;;2.50;;
2099;SDS011;1055;48.854;9.302;2023-05-07T13:40:23;6.83;;;2.77;;
2099;SDS011;1055;48.854;9.302;2023-05-07T13:42:49;8.90;;;2.30;;
2099;SDS011;1055;48.854;9.302;2023-05-07T13:45:16;6.53;;;1.40;;
2099;SDS011;1055;48.854;9.302;2023-05-07T13:47:43;5.60;;;1.63;;
2099;SDS011;1055;48.854;9.302;2023-05-07T13:50:09;5.20;;;1.43;;
2099;SDS011;1055;48.854;9.302;2023-05-07T13:52:36;4.50;;;1.20;;
2099;SDS011;1055;48.854;9.302;2023-05-07T13:55:03;4.63;;;1.50;;
2099;SDS011;1055;48.854;9.302;2023-05-07T13:57:29;4.97;;;1.10;;
2099;SDS011;1055;48.854;9.302;2023-05-07T13:59:54;5.70;;;1.20;;
2099;SDS011;1055;48.854;9.302;2023-05-07T14:02:20;4.73;;;1.30;;
2099;SDS011;1055;48.854;9.302;2023-05-07T14:04:46;4.30;;;1.10;;
2099;SDS011;1055;48.854;9.302;2023-05-07T14:07:11;5.50;;;1.50;;
2099;SDS011;1055;48.854;9.302;2023-05-07T14:09:37;5.70;;;1.47;;
2099;SDS011;1055;48.854;9.302;2023-05-07T14:12:03;4.50;;;1.53;;
2099;SDS011;1055;48.854;9.302;2023-05-07T14:14:29;4.53;;;1.40;;
2099;SDS011;1055;48.854;9.302;2023-05-07T14:16:54;7.03;;;1.53;;
2099;SDS011;1055;48.854;9.302;2023-05-07T14:19:21;5.30;;;1.70;;
2099;SDS011;1055;48.854;9.302;2023-05-07T14:21:50;4.83;;;1.37;;
2099;SDS011;1055;48.854;9.302;2023-05-07T14:24:20;4.90;;;1.23;;
2099;SDS011;1055;48.854;9.302;2023-05-07T14:26:46;5.00;;;1.90;;
2099;SDS011;1055;48.854;9.302;2023-05-07T14:29:12;5.70;;;2.20;;
2099;SDS011;1055;48.854;9.302;2023-05-07T14:31:40;6.17;;;1.87;;
2099;SDS011;1055;48.854;9.302;2023-05-07T14:34:07;7.33;;;3.03;;
2099;SDS011;1055;48.854;9.302;2023-05-07T14:36:33;7.63;;;2.90;;
2099;SDS011;1055;48.854;9.302;2023-05-07T14:39:02;6.13;;;2.57;;
2099;SDS011;1055;48.854;9.302;2023-05-07T14:41:34;11.00;;;3.80;;
2099;SDS011;1055;48.854;9.302;2023-05-07T14:44:02;11.33;;;3.17;;
2099;SDS011;1055;48.854;9.302;2023-05-07T14:46:30;6.03;;;2.63;;
2099;SDS011;1055;48.854;9.302;2023-05-07T14:48:58;7.40;;;2.83;;
2099;SDS011;1055;48.854;9.302;2023-05-07T14:51:24;7.10;;;2.70;;
2099;SDS011;1055;48.854;9.302;2023-05-07T14:53:53;5.73;;;2.60;;
2099;SDS011;1055;48.854;9.302;2023-05-07T14:56:20;6.37;;;2.80;;
2099;SDS011;1055;48.854;9.302;2023-05-07T14:58:47;8.00;;;3.67;;
2099;SDS011;1055;48.854;9.302;2023-05-07T15:01:14;5.90;;;2.80;;
2099;SDS011;1055;48.854;9.302;2023-05-07T15:03:41;6.30;;;2.77;;
2099;SDS011;1055;48.854;9.302;2023-05-07T15:06:08;8.43;;;2.60;;
2099;SDS011;1055;48.854;9.302;2023-05-07T15:08:34;8.03;;;3.90;;
2099;SDS011;1055;48.854;9.302;2023-05-07T15:11:00;11.13;;;6.00;;
2099;SDS011;1055;48.854;9.302;2023-05-07T15:13:26;7.00;;;3.47;;
2099;SDS011;1055;48.854;9.302;2023-05-07T15:15:55;6.47;;;3.53;;
2099;SDS011;1055;48.854;9.302;2023-05-07T15:18:23;11.23;;;5.67;;
2099;SDS011;1055;48.854;9.302;2023-05-07T15:20:48;8.17;;;4.90;;
2099;SDS011;1055;48.854;9.302;2023-05-07T15:23:14;9.30;;;5.90;;
2099;SDS011;1055;48.854;9.302;2023-05-07T15:25:41;7.70;;;5.20;;
2099;SDS011;1055;48.854;9.302;2023-05-07T15:28:08;6.10;;;3.20;;
2099;SDS011;1055;48.854;9.302;2023-05-07T15:30:35;11.53;;;3.50;;
2099;SDS011;1055;48.854;9.302;2023-05-07T15:33:02;7.20;;;3.37;;
2099;SDS011;1055;48.854;9.302;2023-05-07T15:35:28;8.00;;;4.27;;
2099;SDS011;1055;48.854;9.302;2023-05-07T15:37:54;5.97;;;3.10;;
2099;SDS011;1055;48.854;9.302;2023-05-07T15:40:20;6.37;;;3.40;;